Heroic Leader — C6ZD2 — position and weather

sailwx.info

Track history (hours):
 
Tides and Currents Weather Stations Pressure Air Temp Water Temp Dewpoint Dewpoint Depression Visibility Wind Speed Wind Dir Waves Ship Positions

Heroic Leader

Last reported at 2017-May-31 05:49 UTC. Time now 2017-Jun-24 20:54 UTC.
Position N 30°46' E 032°19'.
Warning: this ship's position is 24 days out of date.

Length 200 m; draft 9.6 m.

Type: Cargo ship. MMSI: 311052700.

Date/timePositionNaut miles runAvg speedWind from/ knotsBaromVisibWave heightAir tempDewpointWater temp
2017-May-31 05:49N 30°46' E 032°19'3 8.6
2017-May-31 05:30N 30°48' E 032°19'4 8.3
2017-May-31 05:00N 30°52' E 032°19'4 8.5
2017-May-31 04:30N 30°57' E 032°19'5 8.5
2017-May-31 03:54N 31°02' E 032°19'4 8.4
2017-May-31 03:25N 31°06' E 032°18'17 7.7
2017-May-31 01:12N 31°23' E 032°23'2 7.7
2017-May-31 00:59N 31°22' E 032°21'1 0.6
2017-May-30 22:38N 31°23' E 032°20'0 0.3
2017-May-30 22:29N 31°23' E 032°20'0 0.1
2017-May-30 21:44N 31°23' E 032°20'0 0.2
2017-May-30 21:29N 31°23' E 032°20'0 0.0
2017-May-30 20:59N 31°23' E 032°20'0 0.0
2017-May-30 18:05N 31°23' E 032°20'0 0.1
2017-May-30 17:41N 31°23' E 032°20'0 0.1
2017-May-30 17:23N 31°23' E 032°20'0 0.0
2017-May-30 16:59N 31°23' E 032°20'0 0.0
2017-May-30 15:47N 31°23' E 032°20'0 0.0
2017-May-30 15:29N 31°23' E 032°20'0 0.0
2017-May-30 14:53N 31°23' E 032°20'0 0.0
2017-May-30 14:29N 31°23' E 032°20'0 0.0
2017-May-30 13:29N 31°23' E 032°20'0 0.0
2017-May-30 12:59N 31°23' E 032°20'0 0.0
2017-May-30 12:17N 31°23' E 032°20'0 0.0
2017-May-30 11:11N 31°23' E 032°20'0 0.1
2017-May-30 10:59N 31°23' E 032°20'0 0.0
2017-May-30 10:26N 31°23' E 032°20'0 0.0
2017-May-30 09:59N 31°23' E 032°20'0 0.0
2017-May-30 09:29N 31°23' E 032°20'0 0.0
2017-May-30 08:59N 31°23' E 032°20'0 0.0
2017-May-30 08:23N 31°23' E 032°20'0 0.0
2017-May-30 07:59N 31°23' E 032°20'0 0.0
2017-May-30 07:29N 31°23' E 032°20'0 0.0
2017-May-30 06:59N 31°23' E 032°20'0 0.2
2017-May-30 06:31N 31°23' E 032°20'48315.7
2017-May-28 23:46N 37°27' E 025°56'415.1
2017-May-28 23:30N 37°29' E 025°52'815.3
2017-May-28 23:00N 37°36' E 025°48'815.7
2017-May-28 22:31N 37°44' E 025°48'22211.2
2017-May-28 02:41N 40°25' E 029°04'1 4.5
2017-May-28 02:30N 40°25' E 029°05'0 0.1
2017-May-27 19:09N 40°25' E 029°05'0 0.0
2017-May-27 17:45N 40°25' E 029°05'0 0.0
2017-May-27 17:03N 40°25' E 029°05'0 0.0
2017-May-27 16:45N 40°25' E 029°05'0 0.0
2017-May-27 12:34N 40°25' E 029°05'0 1.2
2017-May-27 12:23N 40°25' E 029°05'2 1.8
2017-May-27 11:16N 40°26' E 029°02'63912.5
2017-May-25 08:14N 37°52' E 015°43'415.2
2017-May-25 07:59N 37°53' E 015°38'715.5
2017-May-25 07:30N 37°60' E 015°33'815.9
2017-May-25 07:00N 38°08' E 015°35'815.2
2017-May-25 06:30N 38°15' E 015°38'612.4
2017-May-25 06:00N 38°21' E 015°39'714.7
2017-May-25 05:30N 38°28' E 015°35'815.8
2017-May-25 05:00N 38°35' E 015°31'815.9
2017-May-25 04:30N 38°42' E 015°26'815.8
2017-May-25 04:00N 38°49' E 015°21'815.4
2017-May-25 03:30N 38°54' E 015°14'815.6
2017-May-25 03:00N 39°00' E 015°08'1015.9
2017-May-25 02:21N 39°07' E 014°58'3015.8
2017-May-25 00:26N 39°26' E 014°28'816.0
2017-May-24 23:55N 39°32' E 014°19'715.9
2017-May-24 23:27N 39°36' E 014°12'915.6
2017-May-24 22:51N 39°42' E 014°02'615.9
2017-May-24 22:28N 39°46' E 013°56'715.9
2017-May-24 22:00N 39°51' E 013°49'815.9
2017-May-24 21:29N 39°56' E 013°41'815.8
2017-May-24 21:00N 40°01' E 013°33'915.9
2017-May-24 20:28N 40°06' E 013°24'815.7
2017-May-24 19:56N 40°11' E 013°16'815.8
2017-May-24 19:25N 40°17' E 013°07'1115.8
2017-May-24 18:42N 40°24' E 012°56'816.0
2017-May-24 18:14N 40°29' E 012°48'416.1
2017-May-24 17:59N 40°31' E 012°44'1016.0
2017-May-24 17:22N 40°37' E 012°34'616.0
2017-May-24 16:59N 40°41' E 012°28'815.9
2017-May-24 16:29N 40°46' E 012°20'816.0
2017-May-24 15:58N 40°51' E 012°12'816.0
2017-May-24 15:30N 40°56' E 012°04'916.0
2017-May-24 14:56N 41°02' E 011°55'815.8
2017-May-24 14:28N 41°07' E 011°47'1616.1
2017-May-24 13:29N 41°17' E 011°31'816.1
2017-May-24 12:58N 41°22' E 011°22'816.5
2017-May-24 12:30N 41°27' E 011°14'816.4
2017-May-24 11:59N 41°32' E 011°05'816.3
2017-May-24 11:29N 41°37' E 010°57'816.0
2017-May-24 10:59N 41°42' E 010°49'815.9
2017-May-24 10:28N 41°48' E 010°40'715.7
2017-May-24 10:00N 41°52' E 010°33'815.6
2017-May-24 09:29N 41°57' E 010°24'2615.8
2017-May-24 07:50N 42°14' E 009°57'515.7
2017-May-24 07:30N 42°17' E 009°52'1615.0
2017-May-24 06:28N 42°32' E 009°44'715.9
2017-May-24 06:00N 42°39' E 009°42'1515.8
2017-May-24 05:02N 42°54' E 009°37'115.7
2017-May-24 04:58N 42°55' E 009°37'815.7
2017-May-24 04:29N 43°02' E 009°35'815.9
2017-May-24 04:00N 43°09' E 009°30'815.7
2017-May-24 03:30N 43°16' E 009°24'815.5
2017-May-24 03:01N 43°22' E 009°19'815.2
2017-May-24 02:30N 43°29' E 009°13'815.3
2017-May-24 02:00N 43°35' E 009°08'815.4
2017-May-24 01:30N 43°42' E 009°02'815.4
2017-May-24 01:00N 43°48' E 008°56'815.4
2017-May-24 00:30N 43°55' E 008°51'815.6
2017-May-24 00:00N 44°02' E 008°46'815.8
2017-May-23 23:30N 44°09' E 008°40'815.8
2017-May-23 23:00N 44°15' E 008°35'5 9.6
2017-May-23 22:30N 44°19' E 008°30'0 0.3
2017-May-23 21:58N 44°19' E 008°30'0 0.0
2017-May-23 21:28N 44°19' E 008°30'0 0.0
2017-May-23 20:58N 44°19' E 008°30'0 0.0
2017-May-23 20:28N 44°19' E 008°30'0 0.0
2017-May-23 19:55N 44°19' E 008°30'0 0.0
2017-May-23 19:28N 44°19' E 008°30'0 0.0
2017-May-23 18:58N 44°19' E 008°30'0 0.0
2017-May-23 18:28N 44°19' E 008°30'0 0.0
2017-May-23 17:58N 44°19' E 008°30'0 0.0
2017-May-23 17:28N 44°19' E 008°30'0 0.0
2017-May-23 17:01N 44°19' E 008°30'0 0.0
2017-May-23 16:28N 44°19' E 008°30'0 0.0
2017-May-23 15:58N 44°19' E 008°30'0 0.0
2017-May-23 15:28N 44°19' E 008°30'0 0.0
2017-May-23 14:58N 44°19' E 008°30'0 0.0
2017-May-23 14:28N 44°19' E 008°30'0 0.0
2017-May-23 13:30N 44°19' E 008°30'0 0.8
2017-May-23 13:00N 44°19' E 008°30'3 6.9
2017-May-23 12:30N 44°16' E 008°32'713.6
2017-May-23 12:00N 44°09' E 008°31'815.9
2017-May-23 11:30N 44°02' E 008°28'815.7
2017-May-23 11:00N 43°54' E 008°25'815.3
2017-May-23 10:30N 43°47' E 008°20'815.5
2017-May-23 10:00N 43°42' E 008°13'815.5
2017-May-23 09:30N 43°37' E 008°04'815.7
2017-May-23 09:00N 43°32' E 007°56'815.7
2017-May-23 08:30N 43°27' E 007°48'815.7
2017-May-23 08:00N 43°22' E 007°40'815.9
2017-May-23 07:30N 43°16' E 007°32'816.0
2017-May-23 07:00N 43°09' E 007°26'816.2
2017-May-23 06:30N 43°02' E 007°21'816.3
2017-May-23 06:00N 42°55' E 007°15'816.1
2017-May-23 05:30N 42°48' E 007°09'816.2
2017-May-23 05:00N 42°41' E 007°04'816.2
2017-May-23 04:30N 42°34' E 006°58'816.0
2017-May-23 04:00N 42°27' E 006°53'815.9
2017-May-23 03:31N 42°20' E 006°48'815.8
2017-May-23 03:00N 42°13' E 006°42'815.6
2017-May-23 02:31N 42°07' E 006°35'815.9
2017-May-23 02:00N 42°03' E 006°26'816.0
2017-May-23 01:30N 41°59' E 006°17'816.0
2017-May-23 01:00N 41°54' E 006°08'816.0
2017-May-23 00:30N 41°50' E 005°59'816.0
2017-May-22 23:59N 41°46' E 005°50'815.9
2017-May-22 23:30N 41°42' E 005°41'815.9
2017-May-22 23:00N 41°38' E 005°32'816.0
2017-May-22 22:30N 41°33' E 005°23'815.9
2017-May-22 22:00N 41°29' E 005°14'915.9
2017-May-22 21:27N 41°25' E 005°04'715.7
2017-May-22 21:00N 41°22' E 004°55'816.1
2017-May-22 20:30N 41°18' E 004°46'816.1
2017-May-22 20:00N 41°13' E 004°37'815.9
2017-May-22 19:30N 41°09' E 004°28'815.6
2017-May-22 18:59N 41°05' E 004°19'715.7
2017-May-22 18:30N 41°01' E 004°10'815.9
2017-May-22 18:00N 40°57' E 004°01'816.0
2017-May-22 17:30N 40°53' E 003°52'916.3
2017-May-22 16:56N 40°48' E 003°42'716.0
2017-May-22 16:30N 40°44' E 003°34'815.6
2017-May-22 16:00N 40°41' E 003°25'815.8
2017-May-22 15:30N 40°37' E 003°16'815.9
2017-May-22 15:00N 40°32' E 003°07'1716.5
2017-May-22 14:00N 40°21' E 002°51'916.5
2017-May-22 13:29N 40°16' E 002°42'816.1
2017-May-22 13:00N 40°11' E 002°34'816.2
2017-May-22 12:30N 40°06' E 002°26'816.4
2017-May-22 12:00N 40°00' E 002°18'816.2
2017-May-22 11:30N 39°55' E 002°10'816.0
2017-May-22 11:00N 39°50' E 002°02'815.7
2017-May-22 10:30N 39°45' E 001°54'816.0
2017-May-22 10:00N 39°40' E 001°46'816.2
2017-May-22 09:30N 39°35' E 001°38'816.2
2017-May-22 08:59N 39°29' E 001°30'816.2
2017-May-22 08:30N 39°24' E 001°22'816.2
2017-May-22 08:00N 39°19' E 001°14'12116.4
2017-May-22 00:37N 37°44' W 000°21'216.1
2017-May-22 00:30N 37°43' W 000°23'815.9
2017-May-22 00:00N 37°36' W 000°28'815.4
2017-May-21 23:30N 37°30' W 000°34'815.5
2017-May-21 23:00N 37°25' W 000°42'815.4
2017-May-21 22:30N 37°20' W 000°49'3415.1
2017-May-21 20:14N 36°58' W 001°22'1915.0
2017-May-21 19:00N 36°45' W 001°39'815.2
2017-May-21 18:28N 36°40' W 001°46'16915.1
2017-May-21 07:14N 36°00' W 005°11'315.4
2017-May-21 07:01N 35°60' W 005°15'816.3
2017-May-21 06:31N 35°58' W 005°25'815.3
2017-May-21 06:00N 35°56' W 005°34'  
Track history (hours):
 
Tides and Currents Weather Stations Pressure Air Temp Water Temp Dewpoint Dewpoint Depression Visibility Wind Speed Wind Dir Waves Ship Positions

Heroic Leader

Last reported at 2017-May-31 05:49 UTC. Time now 2017-Jun-24 20:54 UTC.
Position N 30°46' E 032°19'.
Warning: this ship's position is 24 days out of date.

Length 200 m; draft 9.6 m.

Type: Cargo ship. MMSI: 311052700.

Date/timePositionNaut miles runAvg speedWind from/ knotsBaromVisibWave heightAir tempDewpointWater temp
2017-May-31 05:49N 30°46' E 032°19'3 8.6
2017-May-31 05:30N 30°48' E 032°19'4 8.3
2017-May-31 05:00N 30°52' E 032°19'4 8.5
2017-May-31 04:30N 30°57' E 032°19'5 8.5
2017-May-31 03:54N 31°02' E 032°19'4 8.4
2017-May-31 03:25N 31°06' E 032°18'17 7.7
2017-May-31 01:12N 31°23' E 032°23'2 7.7
2017-May-31 00:59N 31°22' E 032°21'1 0.6
2017-May-30 22:38N 31°23' E 032°20'0 0.3
2017-May-30 22:29N 31°23' E 032°20'0 0.1
2017-May-30 21:44N 31°23' E 032°20'0 0.2
2017-May-30 21:29N 31°23' E 032°20'0 0.0
2017-May-30 20:59N 31°23' E 032°20'0 0.0
2017-May-30 18:05N 31°23' E 032°20'0 0.1
2017-May-30 17:41N 31°23' E 032°20'0 0.1
2017-May-30 17:23N 31°23' E 032°20'0 0.0
2017-May-30 16:59N 31°23' E 032°20'0 0.0
2017-May-30 15:47N 31°23' E 032°20'0 0.0
2017-May-30 15:29N 31°23' E 032°20'0 0.0
2017-May-30 14:53N 31°23' E 032°20'0 0.0
2017-May-30 14:29N 31°23' E 032°20'0 0.0
2017-May-30 13:29N 31°23' E 032°20'0 0.0
2017-May-30 12:59N 31°23' E 032°20'0 0.0
2017-May-30 12:17N 31°23' E 032°20'0 0.0
2017-May-30 11:11N 31°23' E 032°20'0 0.1
2017-May-30 10:59N 31°23' E 032°20'0 0.0
2017-May-30 10:26N 31°23' E 032°20'0 0.0
2017-May-30 09:59N 31°23' E 032°20'0 0.0
2017-May-30 09:29N 31°23' E 032°20'0 0.0
2017-May-30 08:59N 31°23' E 032°20'0 0.0
2017-May-30 08:23N 31°23' E 032°20'0 0.0
2017-May-30 07:59N 31°23' E 032°20'0 0.0
2017-May-30 07:29N 31°23' E 032°20'0 0.0
2017-May-30 06:59N 31°23' E 032°20'0 0.2
2017-May-30 06:31N 31°23' E 032°20'48315.7
2017-May-28 23:46N 37°27' E 025°56'415.1
2017-May-28 23:30N 37°29' E 025°52'815.3
2017-May-28 23:00N 37°36' E 025°48'815.7
2017-May-28 22:31N 37°44' E 025°48'22211.2
2017-May-28 02:41N 40°25' E 029°04'1 4.5
2017-May-28 02:30N 40°25' E 029°05'0 0.1
2017-May-27 19:09N 40°25' E 029°05'0 0.0
2017-May-27 17:45N 40°25' E 029°05'0 0.0
2017-May-27 17:03N 40°25' E 029°05'0 0.0
2017-May-27 16:45N 40°25' E 029°05'0 0.0
2017-May-27 12:34N 40°25' E 029°05'0 1.2
2017-May-27 12:23N 40°25' E 029°05'2 1.8
2017-May-27 11:16N 40°26' E 029°02'63912.5
2017-May-25 08:14N 37°52' E 015°43'415.2
2017-May-25 07:59N 37°53' E 015°38'715.5
2017-May-25 07:30N 37°60' E 015°33'815.9
2017-May-25 07:00N 38°08' E 015°35'815.2
2017-May-25 06:30N 38°15' E 015°38'612.4
2017-May-25 06:00N 38°21' E 015°39'714.7
2017-May-25 05:30N 38°28' E 015°35'815.8
2017-May-25 05:00N 38°35' E 015°31'815.9
2017-May-25 04:30N 38°42' E 015°26'815.8
2017-May-25 04:00N 38°49' E 015°21'815.4
2017-May-25 03:30N 38°54' E 015°14'815.6
2017-May-25 03:00N 39°00' E 015°08'1015.9
2017-May-25 02:21N 39°07' E 014°58'3015.8
2017-May-25 00:26N 39°26' E 014°28'816.0
2017-May-24 23:55N 39°32' E 014°19'715.9
2017-May-24 23:27N 39°36' E 014°12'915.6
2017-May-24 22:51N 39°42' E 014°02'615.9
2017-May-24 22:28N 39°46' E 013°56'715.9
2017-May-24 22:00N 39°51' E 013°49'815.9
2017-May-24 21:29N 39°56' E 013°41'815.8
2017-May-24 21:00N 40°01' E 013°33'915.9
2017-May-24 20:28N 40°06' E 013°24'815.7
2017-May-24 19:56N 40°11' E 013°16'815.8
2017-May-24 19:25N 40°17' E 013°07'1115.8
2017-May-24 18:42N 40°24' E 012°56'816.0
2017-May-24 18:14N 40°29' E 012°48'416.1
2017-May-24 17:59N 40°31' E 012°44'1016.0
2017-May-24 17:22N 40°37' E 012°34'616.0
2017-May-24 16:59N 40°41' E 012°28'815.9
2017-May-24 16:29N 40°46' E 012°20'816.0
2017-May-24 15:58N 40°51' E 012°12'816.0
2017-May-24 15:30N 40°56' E 012°04'916.0
2017-May-24 14:56N 41°02' E 011°55'815.8
2017-May-24 14:28N 41°07' E 011°47'1616.1
2017-May-24 13:29N 41°17' E 011°31'816.1
2017-May-24 12:58N 41°22' E 011°22'816.5
2017-May-24 12:30N 41°27' E 011°14'816.4
2017-May-24 11:59N 41°32' E 011°05'816.3
2017-May-24 11:29N 41°37' E 010°57'816.0
2017-May-24 10:59N 41°42' E 010°49'815.9
2017-May-24 10:28N 41°48' E 010°40'715.7
2017-May-24 10:00N 41°52' E 010°33'815.6
2017-May-24 09:29N 41°57' E 010°24'2615.8
2017-May-24 07:50N 42°14' E 009°57'515.7
2017-May-24 07:30N 42°17' E 009°52'1615.0
2017-May-24 06:28N 42°32' E 009°44'715.9
2017-May-24 06:00N 42°39' E 009°42'1515.8
2017-May-24 05:02N 42°54' E 009°37'115.7
2017-May-24 04:58N 42°55' E 009°37'815.7
2017-May-24 04:29N 43°02' E 009°35'815.9
2017-May-24 04:00N 43°09' E 009°30'815.7
2017-May-24 03:30N 43°16' E 009°24'815.5
2017-May-24 03:01N 43°22' E 009°19'815.2
2017-May-24 02:30N 43°29' E 009°13'815.3
2017-May-24 02:00N 43°35' E 009°08'815.4
2017-May-24 01:30N 43°42' E 009°02'815.4
2017-May-24 01:00N 43°48' E 008°56'815.4
2017-May-24 00:30N 43°55' E 008°51'815.6
2017-May-24 00:00N 44°02' E 008°46'815.8
2017-May-23 23:30N 44°09' E 008°40'815.8
2017-May-23 23:00N 44°15' E 008°35'5 9.6
2017-May-23 22:30N 44°19' E 008°30'0 0.3
2017-May-23 21:58N 44°19' E 008°30'0 0.0
2017-May-23 21:28N 44°19' E 008°30'0 0.0
2017-May-23 20:58N 44°19' E 008°30'0 0.0
2017-May-23 20:28N 44°19' E 008°30'0 0.0
2017-May-23 19:55N 44°19' E 008°30'0 0.0
2017-May-23 19:28N 44°19' E 008°30'0 0.0
2017-May-23 18:58N 44°19' E 008°30'0 0.0
2017-May-23 18:28N 44°19' E 008°30'0 0.0
2017-May-23 17:58N 44°19' E 008°30'0 0.0
2017-May-23 17:28N 44°19' E 008°30'0 0.0
2017-May-23 17:01N 44°19' E 008°30'0 0.0
2017-May-23 16:28N 44°19' E 008°30'0 0.0
2017-May-23 15:58N 44°19' E 008°30'0 0.0
2017-May-23 15:28N 44°19' E 008°30'0 0.0
2017-May-23 14:58N 44°19' E 008°30'0 0.0
2017-May-23 14:28N 44°19' E 008°30'0 0.0
2017-May-23 13:30N 44°19' E 008°30'0 0.8
2017-May-23 13:00N 44°19' E 008°30'3 6.9
2017-May-23 12:30N 44°16' E 008°32'713.6
2017-May-23 12:00N 44°09' E 008°31'815.9
2017-May-23 11:30N 44°02' E 008°28'815.7
2017-May-23 11:00N 43°54' E 008°25'815.3
2017-May-23 10:30N 43°47' E 008°20'815.5
2017-May-23 10:00N 43°42' E 008°13'815.5
2017-May-23 09:30N 43°37' E 008°04'815.7
2017-May-23 09:00N 43°32' E 007°56'815.7
2017-May-23 08:30N 43°27' E 007°48'815.7
2017-May-23 08:00N 43°22' E 007°40'815.9
2017-May-23 07:30N 43°16' E 007°32'816.0
2017-May-23 07:00N 43°09' E 007°26'816.2
2017-May-23 06:30N 43°02' E 007°21'816.3
2017-May-23 06:00N 42°55' E 007°15'816.1
2017-May-23 05:30N 42°48' E 007°09'816.2
2017-May-23 05:00N 42°41' E 007°04'816.2
2017-May-23 04:30N 42°34' E 006°58'816.0
2017-May-23 04:00N 42°27' E 006°53'815.9
2017-May-23 03:31N 42°20' E 006°48'815.8
2017-May-23 03:00N 42°13' E 006°42'815.6
2017-May-23 02:31N 42°07' E 006°35'815.9
2017-May-23 02:00N 42°03' E 006°26'816.0
2017-May-23 01:30N 41°59' E 006°17'816.0
2017-May-23 01:00N 41°54' E 006°08'816.0
2017-May-23 00:30N 41°50' E 005°59'816.0
2017-May-22 23:59N 41°46' E 005°50'815.9
2017-May-22 23:30N 41°42' E 005°41'815.9
2017-May-22 23:00N 41°38' E 005°32'816.0
2017-May-22 22:30N 41°33' E 005°23'815.9
2017-May-22 22:00N 41°29' E 005°14'915.9
2017-May-22 21:27N 41°25' E 005°04'715.7
2017-May-22 21:00N 41°22' E 004°55'816.1
2017-May-22 20:30N 41°18' E 004°46'816.1
2017-May-22 20:00N 41°13' E 004°37'815.9
2017-May-22 19:30N 41°09' E 004°28'815.6
2017-May-22 18:59N 41°05' E 004°19'715.7
2017-May-22 18:30N 41°01' E 004°10'815.9
2017-May-22 18:00N 40°57' E 004°01'816.0
2017-May-22 17:30N 40°53' E 003°52'916.3
2017-May-22 16:56N 40°48' E 003°42'716.0
2017-May-22 16:30N 40°44' E 003°34'815.6
2017-May-22 16:00N 40°41' E 003°25'815.8
2017-May-22 15:30N 40°37' E 003°16'815.9
2017-May-22 15:00N 40°32' E 003°07'1716.5
2017-May-22 14:00N 40°21' E 002°51'916.5
2017-May-22 13:29N 40°16' E 002°42'816.1
2017-May-22 13:00N 40°11' E 002°34'816.2
2017-May-22 12:30N 40°06' E 002°26'816.4
2017-May-22 12:00N 40°00' E 002°18'816.2
2017-May-22 11:30N 39°55' E 002°10'816.0
2017-May-22 11:00N 39°50' E 002°02'815.7
2017-May-22 10:30N 39°45' E 001°54'816.0
2017-May-22 10:00N 39°40' E 001°46'816.2
2017-May-22 09:30N 39°35' E 001°38'816.2
2017-May-22 08:59N 39°29' E 001°30'816.2
2017-May-22 08:30N 39°24' E 001°22'816.2
2017-May-22 08:00N 39°19' E 001°14'12116.4
2017-May-22 00:37N 37°44' W 000°21'216.1
2017-May-22 00:30N 37°43' W 000°23'815.9
2017-May-22 00:00N 37°36' W 000°28'815.4
2017-May-21 23:30N 37°30' W 000°34'815.5
2017-May-21 23:00N 37°25' W 000°42'815.4
2017-May-21 22:30N 37°20' W 000°49'3415.1
2017-May-21 20:14N 36°58' W 001°22'1915.0
2017-May-21 19:00N 36°45' W 001°39'815.2
2017-May-21 18:28N 36°40' W 001°46'16915.1
2017-May-21 07:14N 36°00' W 005°11'315.4
2017-May-21 07:01N 35°60' W 005°15'816.3
2017-May-21 06:31N 35°58' W 005°25'815.3
2017-May-21 06:00N 35°56' W 005°34'  

Dump ship's entire track history